sensor_id;sensor_type;location;lat;lon;timestamp;temperature;humidity
58993;DHT22;44782;0.000;0.000;2022-07-23T00:00:09;25.00;56.70
58993;DHT22;44782;0.000;0.000;2022-07-23T00:02:25;25.00;56.70
58993;DHT22;44782;0.000;0.000;2022-07-23T00:04:40;25.10;56.70
58993;DHT22;44782;0.000;0.000;2022-07-23T00:06:56;25.00;56.60
58993;DHT22;44782;0.000;0.000;2022-07-23T00:09:12;25.00;56.60
58993;DHT22;44782;0.000;0.000;2022-07-23T00:11:27;25.10;57.50
58993;DHT22;44782;0.000;0.000;2022-07-23T00:13:43;25.00;56.60
58993;DHT22;44782;0.000;0.000;2022-07-23T00:15:59;25.00;56.60
58993;DHT22;44782;0.000;0.000;2022-07-23T00:18:14;25.00;56.60
58993;DHT22;44782;0.000;0.000;2022-07-23T00:20:30;25.00;56.60
58993;DHT22;44782;0.000;0.000;2022-07-23T00:22:50;25.00;56.60
58993;DHT22;44782;0.000;0.000;2022-07-23T00:25:06;25.00;56.60
58993;DHT22;44782;0.000;0.000;2022-07-23T00:27:22;25.00;56.60
58993;DHT22;44782;0.000;0.000;2022-07-23T00:29:38;25.00;56.60
58993;DHT22;44782;0.000;0.000;2022-07-23T00:31:53;25.00;56.70
58993;DHT22;44782;0.000;0.000;2022-07-23T00:34:09;25.00;56.60
58993;DHT22;44782;0.000;0.000;2022-07-23T00:36:24;25.00;56.60
58993;DHT22;44782;0.000;0.000;2022-07-23T00:38:40;25.00;56.60
58993;DHT22;44782;0.000;0.000;2022-07-23T00:40:56;25.00;56.50
58993;DHT22;44782;0.000;0.000;2022-07-23T00:43:11;25.00;56.60
58993;DHT22;44782;0.000;0.000;2022-07-23T00:45:27;25.00;56.50
58993;DHT22;44782;0.000;0.000;2022-07-23T00:47:43;25.00;56.50
58993;DHT22;44782;0.000;0.000;2022-07-23T00:49:59;25.00;56.50
58993;DHT22;44782;0.000;0.000;2022-07-23T00:52:14;25.00;56.50
58993;DHT22;44782;0.000;0.000;2022-07-23T00:54:31;25.00;56.50
58993;DHT22;44782;0.000;0.000;2022-07-23T00:56:46;25.00;56.50
58993;DHT22;44782;0.000;0.000;2022-07-23T00:59:03;25.00;56.50
58993;DHT22;44782;0.000;0.000;2022-07-23T01:01:19;25.00;56.60
58993;DHT22;44782;0.000;0.000;2022-07-23T01:03:34;25.00;56.50
58993;DHT22;44782;0.000;0.000;2022-07-23T01:05:50;25.00;56.50
58993;DHT22;44782;0.000;0.000;2022-07-23T01:08:05;24.90;56.40
58993;DHT22;44782;0.000;0.000;2022-07-23T01:10:22;24.90;56.40
58993;DHT22;44782;0.000;0.000;2022-07-23T01:12:46;24.90;56.40
58993;DHT22;44782;0.000;0.000;2022-07-23T01:15:02;24.90;56.50
58993;DHT22;44782;0.000;0.000;2022-07-23T01:17:18;24.90;56.40
58993;DHT22;44782;0.000;0.000;2022-07-23T01:19:33;24.90;56.40
58993;DHT22;44782;0.000;0.000;2022-07-23T01:21:51;24.90;56.40
58993;DHT22;44782;0.000;0.000;2022-07-23T01:24:07;24.90;56.40
58993;DHT22;44782;0.000;0.000;2022-07-23T01:26:23;24.90;56.40
58993;DHT22;44782;0.000;0.000;2022-07-23T01:28:39;24.90;56.40
58993;DHT22;44782;0.000;0.000;2022-07-23T01:30:54;24.90;57.10
58993;DHT22;44782;0.000;0.000;2022-07-23T01:33:10;24.90;56.40
58993;DHT22;44782;0.000;0.000;2022-07-23T01:35:26;24.90;56.40
58993;DHT22;44782;0.000;0.000;2022-07-23T01:37:41;24.90;56.40
58993;DHT22;44782;0.000;0.000;2022-07-23T01:39:57;24.90;56.40
58993;DHT22;44782;0.000;0.000;2022-07-23T01:42:12;24.90;56.30
58993;DHT22;44782;0.000;0.000;2022-07-23T01:44:28;24.90;56.30
58993;DHT22;44782;0.000;0.000;2022-07-23T01:46:44;24.90;56.30
58993;DHT22;44782;0.000;0.000;2022-07-23T01:48:59;24.90;56.40
58993;DHT22;44782;0.000;0.000;2022-07-23T01:51:15;24.90;56.40
58993;DHT22;44782;0.000;0.000;2022-07-23T01:53:31;24.90;56.30
58993;DHT22;44782;0.000;0.000;2022-07-23T01:55:46;24.90;56.30
58993;DHT22;44782;0.000;0.000;2022-07-23T01:58:02;24.80;56.30
58993;DHT22;44782;0.000;0.000;2022-07-23T02:00:18;24.80;56.30
58993;DHT22;44782;0.000;0.000;2022-07-23T02:02:34;24.90;56.30
58993;DHT22;44782;0.000;0.000;2022-07-23T02:04:49;24.80;56.20
58993;DHT22;44782;0.000;0.000;2022-07-23T02:07:05;24.80;56.20
58993;DHT22;44782;0.000;0.000;2022-07-23T02:09:21;24.80;56.20
58993;DHT22;44782;0.000;0.000;2022-07-23T02:11:38;24.90;56.20
58993;DHT22;44782;0.000;0.000;2022-07-23T02:13:53;24.80;56.20
58993;DHT22;44782;0.000;0.000;2022-07-23T02:16:09;24.80;56.20
58993;DHT22;44782;0.000;0.000;2022-07-23T02:18:24;24.80;56.20
58993;DHT22;44782;0.000;0.000;2022-07-23T02:20:41;24.80;56.20
58993;DHT22;44782;0.000;0.000;2022-07-23T02:22:56;24.80;56.20
58993;DHT22;44782;0.000;0.000;2022-07-23T02:25:12;24.80;56.20
58993;DHT22;44782;0.000;0.000;2022-07-23T02:27:28;24.80;56.20
58993;DHT22;44782;0.000;0.000;2022-07-23T02:29:43;24.80;56.20
58993;DHT22;44782;0.000;0.000;2022-07-23T02:31:59;24.80;56.20
58993;DHT22;44782;0.000;0.000;2022-07-23T02:34:14;24.80;56.20
58993;DHT22;44782;0.000;0.000;2022-07-23T02:36:30;24.80;56.20
58993;DHT22;44782;0.000;0.000;2022-07-23T02:38:46;24.80;56.20
58993;DHT22;44782;0.000;0.000;2022-07-23T02:41:02;24.80;56.20
58993;DHT22;44782;0.000;0.000;2022-07-23T02:43:18;24.80;56.20
58993;DHT22;44782;0.000;0.000;2022-07-23T02:45:33;24.80;56.20
58993;DHT22;44782;0.000;0.000;2022-07-23T02:47:49;24.80;56.20
58993;DHT22;44782;0.000;0.000;2022-07-23T02:50:05;24.80;56.20
58993;DHT22;44782;0.000;0.000;2022-07-23T02:52:22;24.80;56.20
58993;DHT22;44782;0.000;0.000;2022-07-23T02:54:38;24.80;56.10
58993;DHT22;44782;0.000;0.000;2022-07-23T02:56:53;24.80;56.20
58993;DHT22;44782;0.000;0.000;2022-07-23T02:59:09;24.80;56.20
58993;DHT22;44782;0.000;0.000;2022-07-23T03:01:25;24.80;56.20
58993;DHT22;44782;0.000;0.000;2022-07-23T03:03:41;24.80;56.10
58993;DHT22;44782;0.000;0.000;2022-07-23T03:05:57;24.80;56.10
58993;DHT22;44782;0.000;0.000;2022-07-23T03:08:12;24.70;56.00
58993;DHT22;44782;0.000;0.000;2022-07-23T03:10:28;24.80;56.10
58993;DHT22;44782;0.000;0.000;2022-07-23T03:12:43;24.70;56.00
58993;DHT22;44782;0.000;0.000;2022-07-23T03:14:59;24.70;56.00
58993;DHT22;44782;0.000;0.000;2022-07-23T03:17:15;24.70;56.00
58993;DHT22;44782;0.000;0.000;2022-07-23T03:19:31;24.70;56.00
58993;DHT22;44782;0.000;0.000;2022-07-23T03:21:48;24.70;56.00
58993;DHT22;44782;0.000;0.000;2022-07-23T03:24:03;24.70;56.00
58993;DHT22;44782;0.000;0.000;2022-07-23T03:26:19;24.70;56.70
58993;DHT22;44782;0.000;0.000;2022-07-23T03:28:35;24.70;56.00
58993;DHT22;44782;0.000;0.000;2022-07-23T03:30:50;24.70;56.00
58993;DHT22;44782;0.000;0.000;2022-07-23T03:33:06;24.70;56.00
58993;DHT22;44782;0.000;0.000;2022-07-23T03:35:22;24.70;56.00
58993;DHT22;44782;0.000;0.000;2022-07-23T03:37:37;24.70;56.00
58993;DHT22;44782;0.000;0.000;2022-07-23T03:39:53;24.70;56.00
58993;DHT22;44782;0.000;0.000;2022-07-23T03:42:08;24.70;56.00
58993;DHT22;44782;0.000;0.000;2022-07-23T03:44:24;24.70;56.00
58993;DHT22;44782;0.000;0.000;2022-07-23T03:46:40;24.70;56.00
58993;DHT22;44782;0.000;0.000;2022-07-23T03:48:55;24.70;56.00
58993;DHT22;44782;0.000;0.000;2022-07-23T03:51:11;24.70;56.00
58993;DHT22;44782;0.000;0.000;2022-07-23T03:53:27;24.70;56.00
58993;DHT22;44782;0.000;0.000;2022-07-23T03:55:42;24.70;56.00
58993;DHT22;44782;0.000;0.000;2022-07-23T03:57:58;24.70;55.90
58993;DHT22;44782;0.000;0.000;2022-07-23T04:00:14;24.70;55.90
58993;DHT22;44782;0.000;0.000;2022-07-23T04:02:29;24.60;55.80
58993;DHT22;44782;0.000;0.000;2022-07-23T04:04:45;24.70;55.90
58993;DHT22;44782;0.000;0.000;2022-07-23T04:07:02;24.70;55.90
58993;DHT22;44782;0.000;0.000;2022-07-23T04:09:17;24.70;55.90
58993;DHT22;44782;0.000;0.000;2022-07-23T04:11:33;24.70;55.80
58993;DHT22;44782;0.000;0.000;2022-07-23T04:13:48;24.60;55.80
58993;DHT22;44782;0.000;0.000;2022-07-23T04:16:04;24.60;55.80
58993;DHT22;44782;0.000;0.000;2022-07-23T04:18:20;24.60;55.70
58993;DHT22;44782;0.000;0.000;2022-07-23T04:20:39;24.70;55.80
58993;DHT22;44782;0.000;0.000;2022-07-23T04:22:54;24.60;55.80
58993;DHT22;44782;0.000;0.000;2022-07-23T04:25:10;24.60;55.70
58993;DHT22;44782;0.000;0.000;2022-07-23T04:27:25;24.60;55.80
58993;DHT22;44782;0.000;0.000;2022-07-23T04:29:41;24.60;55.80
58993;DHT22;44782;0.000;0.000;2022-07-23T04:31:57;24.60;55.80
58993;DHT22;44782;0.000;0.000;2022-07-23T04:34:12;24.60;55.80
58993;DHT22;44782;0.000;0.000;2022-07-23T04:36:28;24.60;55.80
58993;DHT22;44782;0.000;0.000;2022-07-23T04:38:44;24.60;55.80
58993;DHT22;44782;0.000;0.000;2022-07-23T04:41:00;24.60;55.80
58993;DHT22;44782;0.000;0.000;2022-07-23T04:43:15;24.60;55.80
58993;DHT22;44782;0.000;0.000;2022-07-23T04:45:31;24.60;55.80
58993;DHT22;44782;0.000;0.000;2022-07-23T04:47:46;24.60;55.80
58993;DHT22;44782;0.000;0.000;2022-07-23T04:50:02;24.60;55.80
58993;DHT22;44782;0.000;0.000;2022-07-23T04:52:18;24.60;55.80
58993;DHT22;44782;0.000;0.000;2022-07-23T04:54:33;24.60;55.80
58993;DHT22;44782;0.000;0.000;2022-07-23T04:56:49;24.60;55.80
58993;DHT22;44782;0.000;0.000;2022-07-23T04:59:05;24.60;55.80
58993;DHT22;44782;0.000;0.000;2022-07-23T05:01:20;24.60;55.80
58993;DHT22;44782;0.000;0.000;2022-07-23T05:03:36;24.60;55.80
58993;DHT22;44782;0.000;0.000;2022-07-23T05:05:51;24.60;55.80
58993;DHT22;44782;0.000;0.000;2022-07-23T05:08:07;24.50;55.70
58993;DHT22;44782;0.000;0.000;2022-07-23T05:10:22;24.50;55.80
58993;DHT22;44782;0.000;0.000;2022-07-23T05:12:38;24.50;55.80
58993;DHT22;44782;0.000;0.000;2022-07-23T05:14:54;24.50;55.70
58993;DHT22;44782;0.000;0.000;2022-07-23T05:17:09;24.50;55.80
58993;DHT22;44782;0.000;0.000;2022-07-23T05:19:25;24.50;55.70
58993;DHT22;44782;0.000;0.000;2022-07-23T05:21:40;24.50;55.80
58993;DHT22;44782;0.000;0.000;2022-07-23T05:23:56;24.50;55.80
58993;DHT22;44782;0.000;0.000;2022-07-23T05:26:11;24.50;55.80
58993;DHT22;44782;0.000;0.000;2022-07-23T05:28:27;24.50;55.80
58993;DHT22;44782;0.000;0.000;2022-07-23T05:30:43;24.50;55.70
58993;DHT22;44782;0.000;0.000;2022-07-23T05:32:58;24.50;55.70
58993;DHT22;44782;0.000;0.000;2022-07-23T05:35:14;24.50;55.70
58993;DHT22;44782;0.000;0.000;2022-07-23T05:37:30;24.50;55.70
58993;DHT22;44782;0.000;0.000;2022-07-23T05:39:45;24.50;55.70
58993;DHT22;44782;0.000;0.000;2022-07-23T05:42:01;24.50;55.70
58993;DHT22;44782;0.000;0.000;2022-07-23T05:44:17;24.50;55.70
58993;DHT22;44782;0.000;0.000;2022-07-23T05:46:32;24.50;55.70
58993;DHT22;44782;0.000;0.000;2022-07-23T05:48:48;24.50;55.70
58993;DHT22;44782;0.000;0.000;2022-07-23T05:51:05;24.50;55.70
58993;DHT22;44782;0.000;0.000;2022-07-23T05:53:22;24.50;55.80
58993;DHT22;44782;0.000;0.000;2022-07-23T05:55:37;24.50;55.70
58993;DHT22;44782;0.000;0.000;2022-07-23T05:57:53;24.50;55.70
58993;DHT22;44782;0.000;0.000;2022-07-23T06:00:09;24.50;55.70
58993;DHT22;44782;0.000;0.000;2022-07-23T06:02:26;24.50;55.70
58993;DHT22;44782;0.000;0.000;2022-07-23T06:04:41;24.50;55.70
58993;DHT22;44782;0.000;0.000;2022-07-23T06:06:57;24.50;55.70
58993;DHT22;44782;0.000;0.000;2022-07-23T06:09:13;24.50;55.70
58993;DHT22;44782;0.000;0.000;2022-07-23T06:11:29;24.50;55.70
58993;DHT22;44782;0.000;0.000;2022-07-23T06:13:45;24.50;55.60
58993;DHT22;44782;0.000;0.000;2022-07-23T06:16:00;24.50;55.60
58993;DHT22;44782;0.000;0.000;2022-07-23T06:18:16;24.50;55.70
58993;DHT22;44782;0.000;0.000;2022-07-23T06:20:31;24.50;55.70
58993;DHT22;44782;0.000;0.000;2022-07-23T06:22:47;24.50;55.60
58993;DHT22;44782;0.000;0.000;2022-07-23T06:25:03;24.50;55.60
58993;DHT22;44782;0.000;0.000;2022-07-23T06:27:19;24.50;55.50
58993;DHT22;44782;0.000;0.000;2022-07-23T06:29:34;24.50;55.50
58993;DHT22;44782;0.000;0.000;2022-07-23T06:31:50;24.50;55.50
58993;DHT22;44782;0.000;0.000;2022-07-23T06:34:05;24.50;55.50
58993;DHT22;44782;0.000;0.000;2022-07-23T06:36:21;24.50;55.50
58993;DHT22;44782;0.000;0.000;2022-07-23T06:38:36;24.50;55.50
58993;DHT22;44782;0.000;0.000;2022-07-23T06:40:52;24.40;55.40
58993;DHT22;44782;0.000;0.000;2022-07-23T06:43:08;24.50;55.50
58993;DHT22;44782;0.000;0.000;2022-07-23T06:45:23;24.40;55.40
58993;DHT22;44782;0.000;0.000;2022-07-23T06:47:39;24.50;55.40
58993;DHT22;44782;0.000;0.000;2022-07-23T06:49:56;24.50;55.40
58993;DHT22;44782;0.000;0.000;2022-07-23T06:52:12;24.50;55.40
58993;DHT22;44782;0.000;0.000;2022-07-23T06:54:27;24.50;55.40
58993;DHT22;44782;0.000;0.000;2022-07-23T06:56:43;24.50;55.40
58993;DHT22;44782;0.000;0.000;2022-07-23T06:58:59;24.40;55.30
58993;DHT22;44782;0.000;0.000;2022-07-23T07:01:14;24.40;55.30
58993;DHT22;44782;0.000;0.000;2022-07-23T07:03:30;24.50;55.50
58993;DHT22;44782;0.000;0.000;2022-07-23T07:05:45;24.50;55.60
58993;DHT22;44782;0.000;0.000;2022-07-23T07:08:01;24.40;55.80
58993;DHT22;44782;0.000;0.000;2022-07-23T07:10:17;24.50;56.00
58993;DHT22;44782;0.000;0.000;2022-07-23T07:12:32;24.40;55.90
58993;DHT22;44782;0.000;0.000;2022-07-23T07:14:48;24.40;55.90
58993;DHT22;44782;0.000;0.000;2022-07-23T07:17:04;24.40;56.00
58993;DHT22;44782;0.000;0.000;2022-07-23T07:19:20;24.40;56.00
58993;DHT22;44782;0.000;0.000;2022-07-23T07:21:35;24.40;56.00
58993;DHT22;44782;0.000;0.000;2022-07-23T07:23:51;24.40;56.10
58993;DHT22;44782;0.000;0.000;2022-07-23T07:26:07;24.40;56.10
58993;DHT22;44782;0.000;0.000;2022-07-23T07:28:22;24.40;56.10
58993;DHT22;44782;0.000;0.000;2022-07-23T07:30:38;24.40;56.20
58993;DHT22;44782;0.000;0.000;2022-07-23T07:32:54;24.40;56.20
58993;DHT22;44782;0.000;0.000;2022-07-23T07:35:09;24.40;56.30
58993;DHT22;44782;0.000;0.000;2022-07-23T07:37:25;24.40;56.40
58993;DHT22;44782;0.000;0.000;2022-07-23T07:39:41;24.40;56.40
58993;DHT22;44782;0.000;0.000;2022-07-23T07:41:56;24.40;56.50
58993;DHT22;44782;0.000;0.000;2022-07-23T07:44:12;24.40;56.60
58993;DHT22;44782;0.000;0.000;2022-07-23T07:46:27;24.40;56.70
58993;DHT22;44782;0.000;0.000;2022-07-23T07:48:43;24.40;56.90
58993;DHT22;44782;0.000;0.000;2022-07-23T07:50:59;24.40;57.00
58993;DHT22;44782;0.000;0.000;2022-07-23T07:53:14;24.40;57.20
58993;DHT22;44782;0.000;0.000;2022-07-23T07:55:30;24.40;57.20
58993;DHT22;44782;0.000;0.000;2022-07-23T07:57:46;24.40;57.30
58993;DHT22;44782;0.000;0.000;2022-07-23T08:00:02;24.40;57.40
58993;DHT22;44782;0.000;0.000;2022-07-23T08:02:18;24.40;57.50
58993;DHT22;44782;0.000;0.000;2022-07-23T08:04:34;24.40;57.50
58993;DHT22;44782;0.000;0.000;2022-07-23T08:06:49;24.40;58.30
58993;DHT22;44782;0.000;0.000;2022-07-23T08:09:05;24.40;57.70
58993;DHT22;44782;0.000;0.000;2022-07-23T08:11:20;24.40;57.80
58993;DHT22;44782;0.000;0.000;2022-07-23T08:13:36;24.40;57.80
58993;DHT22;44782;0.000;0.000;2022-07-23T08:15:52;24.40;57.90
58993;DHT22;44782;0.000;0.000;2022-07-23T08:18:08;24.40;58.00
58993;DHT22;44782;0.000;0.000;2022-07-23T08:20:25;24.40;58.00
58993;DHT22;44782;0.000;0.000;2022-07-23T08:23:02;24.40;58.10
58993;DHT22;44782;0.000;0.000;2022-07-23T08:27:41;24.40;58.30
58993;DHT22;44782;0.000;0.000;2022-07-23T08:29:57;24.40;58.30
58993;DHT22;44782;0.000;0.000;2022-07-23T08:32:13;24.40;58.40
58993;DHT22;44782;0.000;0.000;2022-07-23T08:34:28;24.40;58.30
58993;DHT22;44782;0.000;0.000;2022-07-23T08:36:44;24.40;58.30
58993;DHT22;44782;0.000;0.000;2022-07-23T08:38:59;24.40;59.00
58993;DHT22;44782;0.000;0.000;2022-07-23T08:41:17;24.40;58.30
58993;DHT22;44782;0.000;0.000;2022-07-23T08:43:33;24.40;58.30
58993;DHT22;44782;0.000;0.000;2022-07-23T08:45:52;24.50;58.40
58993;DHT22;44782;0.000;0.000;2022-07-23T08:48:22;24.50;58.40
58993;DHT22;44782;0.000;0.000;2022-07-23T08:50:46;24.50;58.50
58993;DHT22;44782;0.000;0.000;2022-07-23T08:53:05;24.50;58.50
58993;DHT22;44782;0.000;0.000;2022-07-23T08:55:22;24.50;58.40
58993;DHT22;44782;0.000;0.000;2022-07-23T08:57:38;24.50;58.40
58993;DHT22;44782;0.000;0.000;2022-07-23T08:59:53;24.50;58.40
58993;DHT22;44782;0.000;0.000;2022-07-23T09:02:09;24.50;58.50
58993;DHT22;44782;0.000;0.000;2022-07-23T09:04:25;24.50;58.60
58993;DHT22;44782;0.000;0.000;2022-07-23T09:06:40;24.50;58.70
58993;DHT22;44782;0.000;0.000;2022-07-23T09:08:56;24.50;58.60
58993;DHT22;44782;0.000;0.000;2022-07-23T09:11:15;24.50;58.60
58993;DHT22;44782;0.000;0.000;2022-07-23T09:15:59;24.50;58.50
58993;DHT22;44782;0.000;0.000;2022-07-23T09:18:16;24.50;58.50
58993;DHT22;44782;0.000;0.000;2022-07-23T09:20:31;24.50;58.40
58993;DHT22;44782;0.000;0.000;2022-07-23T09:22:47;24.50;58.40
58993;DHT22;44782;0.000;0.000;2022-07-23T09:27:20;24.60;58.50
58993;DHT22;44782;0.000;0.000;2022-07-23T09:29:35;24.50;58.40
58993;DHT22;44782;0.000;0.000;2022-07-23T09:31:56;24.60;58.40
58993;DHT22;44782;0.000;0.000;2022-07-23T09:34:20;24.60;58.40
58993;DHT22;44782;0.000;0.000;2022-07-23T09:36:37;24.60;58.40
58993;DHT22;44782;0.000;0.000;2022-07-23T09:38:53;24.60;58.30
58993;DHT22;44782;0.000;0.000;2022-07-23T09:41:10;24.60;58.40
58993;DHT22;44782;0.000;0.000;2022-07-23T09:43:27;24.60;58.30
58993;DHT22;44782;0.000;0.000;2022-07-23T09:45:43;24.60;58.30
58993;DHT22;44782;0.000;0.000;2022-07-23T09:48:16;24.60;58.40
58993;DHT22;44782;0.000;0.000;2022-07-23T09:50:32;24.60;59.00
58993;DHT22;44782;0.000;0.000;2022-07-23T09:52:49;24.60;58.30
58993;DHT22;44782;0.000;0.000;2022-07-23T09:55:06;24.60;58.20
58993;DHT22;44782;0.000;0.000;2022-07-23T09:57:22;24.60;58.10
58993;DHT22;44782;0.000;0.000;2022-07-23T09:59:39;24.60;58.10
58993;DHT22;44782;0.000;0.000;2022-07-23T10:01:57;24.60;58.10
58993;DHT22;44782;0.000;0.000;2022-07-23T10:04:14;24.60;58.00
58993;DHT22;44782;0.000;0.000;2022-07-23T10:06:31;24.60;58.10
58993;DHT22;44782;0.000;0.000;2022-07-23T10:08:48;24.60;58.00
58993;DHT22;44782;0.000;0.000;2022-07-23T10:11:06;24.60;58.00
58993;DHT22;44782;0.000;0.000;2022-07-23T10:13:21;24.60;58.60
58993;DHT22;44782;0.000;0.000;2022-07-23T10:15:50;24.70;58.00
58993;DHT22;44782;0.000;0.000;2022-07-23T10:18:06;24.70;57.90
58993;DHT22;44782;0.000;0.000;2022-07-23T10:20:22;24.70;57.80
58993;DHT22;44782;0.000;0.000;2022-07-23T10:22:42;24.70;57.80
58993;DHT22;44782;0.000;0.000;2022-07-23T10:25:10;24.70;57.80
58993;DHT22;44782;0.000;0.000;2022-07-23T10:30:18;24.70;58.30
58993;DHT22;44782;0.000;0.000;2022-07-23T10:38:00;24.70;57.60
58993;DHT22;44782;0.000;0.000;2022-07-23T10:40:19;24.70;57.60
58993;DHT22;44782;0.000;0.000;2022-07-23T10:42:37;24.70;57.60
58993;DHT22;44782;0.000;0.000;2022-07-23T10:44:53;24.70;57.50
58993;DHT22;44782;0.000;0.000;2022-07-23T10:47:10;24.70;57.50
58993;DHT22;44782;0.000;0.000;2022-07-23T10:49:37;24.70;57.40
58993;DHT22;44782;0.000;0.000;2022-07-23T10:52:15;24.70;57.40
58993;DHT22;44782;0.000;0.000;2022-07-23T10:54:31;24.80;57.40
58993;DHT22;44782;0.000;0.000;2022-07-23T10:59:11;24.70;57.30
58993;DHT22;44782;0.000;0.000;2022-07-23T11:01:37;24.70;57.30
58993;DHT22;44782;0.000;0.000;2022-07-23T11:03:56;24.70;57.20
58993;DHT22;44782;0.000;0.000;2022-07-23T11:06:13;24.70;57.20
58993;DHT22;44782;0.000;0.000;2022-07-23T11:11:09;24.70;57.20
58993;DHT22;44782;0.000;0.000;2022-07-23T11:20:55;24.80;57.10
58993;DHT22;44782;0.000;0.000;2022-07-23T11:23:11;24.70;57.10
58993;DHT22;44782;0.000;0.000;2022-07-23T11:27:45;24.70;57.00
58993;DHT22;44782;0.000;0.000;2022-07-23T11:30:01;24.80;57.10
58993;DHT22;44782;0.000;0.000;2022-07-23T11:32:18;24.70;57.00
58993;DHT22;44782;0.000;0.000;2022-07-23T11:36:51;24.80;56.90
58993;DHT22;44782;0.000;0.000;2022-07-23T11:39:07;24.80;56.90
58993;DHT22;44782;0.000;0.000;2022-07-23T11:41:23;24.80;56.90
58993;DHT22;44782;0.000;0.000;2022-07-23T11:43:38;24.80;56.80
58993;DHT22;44782;0.000;0.000;2022-07-23T11:45:58;24.80;56.90
58993;DHT22;44782;0.000;0.000;2022-07-23T11:48:21;24.80;56.80
58993;DHT22;44782;0.000;0.000;2022-07-23T11:50:36;24.80;56.80
58993;DHT22;44782;0.000;0.000;2022-07-23T11:52:53;24.80;56.80
58993;DHT22;44782;0.000;0.000;2022-07-23T11:55:10;24.80;56.80
58993;DHT22;44782;0.000;0.000;2022-07-23T11:57:31;24.80;56.70
58993;DHT22;44782;0.000;0.000;2022-07-23T11:59:51;24.80;56.70
58993;DHT22;44782;0.000;0.000;2022-07-23T12:02:07;24.80;56.70
58993;DHT22;44782;0.000;0.000;2022-07-23T12:04:22;24.80;56.70
58993;DHT22;44782;0.000;0.000;2022-07-23T12:06:38;24.80;56.80
58993;DHT22;44782;0.000;0.000;2022-07-23T12:11:12;24.80;56.80
58993;DHT22;44782;0.000;0.000;2022-07-23T12:13:27;24.80;56.90
58993;DHT22;44782;0.000;0.000;2022-07-23T12:15:46;24.90;57.00
58993;DHT22;44782;0.000;0.000;2022-07-23T12:18:03;24.80;57.00
58993;DHT22;44782;0.000;0.000;2022-07-23T12:20:25;24.80;57.10
58993;DHT22;44782;0.000;0.000;2022-07-23T12:22:46;24.90;57.10
58993;DHT22;44782;0.000;0.000;2022-07-23T12:25:17;24.90;57.20
58993;DHT22;44782;0.000;0.000;2022-07-23T12:27:33;24.90;57.20
58993;DHT22;44782;0.000;0.000;2022-07-23T12:29:49;24.80;57.10
58993;DHT22;44782;0.000;0.000;2022-07-23T12:34:38;24.90;57.10
58993;DHT22;44782;0.000;0.000;2022-07-23T12:36:53;24.90;57.20
58993;DHT22;44782;0.000;0.000;2022-07-23T12:39:09;24.90;57.10
58993;DHT22;44782;0.000;0.000;2022-07-23T12:41:25;24.90;57.10
58993;DHT22;44782;0.000;0.000;2022-07-23T12:43:43;24.90;57.10
58993;DHT22;44782;0.000;0.000;2022-07-23T12:46:11;24.90;57.10
58993;DHT22;44782;0.000;0.000;2022-07-23T12:48:28;24.90;57.10
58993;DHT22;44782;0.000;0.000;2022-07-23T12:53:43;24.80;57.00
58993;DHT22;44782;0.000;0.000;2022-07-23T12:56:04;24.90;57.80
58993;DHT22;44782;0.000;0.000;2022-07-23T12:58:20;24.80;58.90
58993;DHT22;44782;0.000;0.000;2022-07-23T13:00:56;24.80;57.00
58993;DHT22;44782;0.000;0.000;2022-07-23T13:03:31;24.90;56.90
58993;DHT22;44782;0.000;0.000;2022-07-23T13:05:46;24.90;56.90
58993;DHT22;44782;0.000;0.000;2022-07-23T13:10:19;24.90;56.30
58993;DHT22;44782;0.000;0.000;2022-07-23T13:12:34;24.90;56.90
58993;DHT22;44782;0.000;0.000;2022-07-23T13:14:50;24.90;56.80
58993;DHT22;44782;0.000;0.000;2022-07-23T13:17:05;24.90;56.80
58993;DHT22;44782;0.000;0.000;2022-07-23T13:19:21;24.90;56.80
58993;DHT22;44782;0.000;0.000;2022-07-23T13:21:38;24.90;56.80
58993;DHT22;44782;0.000;0.000;2022-07-23T13:23:54;24.90;56.90
58993;DHT22;44782;0.000;0.000;2022-07-23T13:26:10;24.90;57.00
58993;DHT22;44782;0.000;0.000;2022-07-23T13:28:26;24.90;57.70
58993;DHT22;44782;0.000;0.000;2022-07-23T13:30:43;24.90;57.10
58993;DHT22;44782;0.000;0.000;2022-07-23T13:33:01;25.00;57.10
58993;DHT22;44782;0.000;0.000;2022-07-23T13:35:16;25.00;57.10
58993;DHT22;44782;0.000;0.000;2022-07-23T13:37:32;25.00;57.10
58993;DHT22;44782;0.000;0.000;2022-07-23T13:39:47;25.00;57.10
58993;DHT22;44782;0.000;0.000;2022-07-23T13:42:03;24.80;57.00
58993;DHT22;44782;0.000;0.000;2022-07-23T13:44:19;25.00;57.10
58993;DHT22;44782;0.000;0.000;2022-07-23T13:46:35;25.00;57.10
58993;DHT22;44782;0.000;0.000;2022-07-23T13:48:50;25.00;57.10
58993;DHT22;44782;0.000;0.000;2022-07-23T13:51:07;25.00;57.10
58993;DHT22;44782;0.000;0.000;2022-07-23T13:53:23;25.00;57.00
58993;DHT22;44782;0.000;0.000;2022-07-23T13:55:40;25.00;57.00
58993;DHT22;44782;0.000;0.000;2022-07-23T13:57:57;25.00;57.00
58993;DHT22;44782;0.000;0.000;2022-07-23T14:00:13;25.00;57.10
58993;DHT22;44782;0.000;0.000;2022-07-23T14:02:30;25.00;57.20
58993;DHT22;44782;0.000;0.000;2022-07-23T14:04:45;25.00;57.40
58993;DHT22;44782;0.000;0.000;2022-07-23T14:07:01;25.00;57.70
58993;DHT22;44782;0.000;0.000;2022-07-23T14:09:16;25.00;57.60
58993;DHT22;44782;0.000;0.000;2022-07-23T14:11:33;25.00;58.00
58993;DHT22;44782;0.000;0.000;2022-07-23T14:13:48;25.00;58.10
58993;DHT22;44782;0.000;0.000;2022-07-23T14:16:04;25.00;58.20
58993;DHT22;44782;0.000;0.000;2022-07-23T14:18:20;25.00;58.30
58993;DHT22;44782;0.000;0.000;2022-07-23T14:20:36;25.00;58.40
58993;DHT22;44782;0.000;0.000;2022-07-23T14:22:52;25.00;58.30
58993;DHT22;44782;0.000;0.000;2022-07-23T14:25:09;25.00;58.50
58993;DHT22;44782;0.000;0.000;2022-07-23T14:27:26;25.00;58.50
58993;DHT22;44782;0.000;0.000;2022-07-23T14:29:41;25.00;58.20
58993;DHT22;44782;0.000;0.000;2022-07-23T14:31:58;25.00;58.00
58993;DHT22;44782;0.000;0.000;2022-07-23T14:34:14;25.00;58.40
58993;DHT22;44782;0.000;0.000;2022-07-23T14:36:29;25.10;58.50
58993;DHT22;44782;0.000;0.000;2022-07-23T14:38:45;25.10;58.40
58993;DHT22;44782;0.000;0.000;2022-07-23T14:41:01;25.10;58.60
58993;DHT22;44782;0.000;0.000;2022-07-23T14:43:16;25.10;58.60
58993;DHT22;44782;0.000;0.000;2022-07-23T14:45:32;25.10;58.70
58993;DHT22;44782;0.000;0.000;2022-07-23T14:47:48;25.00;58.50
58993;DHT22;44782;0.000;0.000;2022-07-23T14:50:04;25.10;58.60
58993;DHT22;44782;0.000;0.000;2022-07-23T14:52:20;25.10;58.60
58993;DHT22;44782;0.000;0.000;2022-07-23T14:54:36;25.10;58.50
58993;DHT22;44782;0.000;0.000;2022-07-23T14:56:52;25.10;58.40
58993;DHT22;44782;0.000;0.000;2022-07-23T14:59:08;25.10;58.40
58993;DHT22;44782;0.000;0.000;2022-07-23T15:01:24;25.10;58.30
58993;DHT22;44782;0.000;0.000;2022-07-23T15:03:39;25.10;58.20
58993;DHT22;44782;0.000;0.000;2022-07-23T15:05:55;25.10;58.20
58993;DHT22;44782;0.000;0.000;2022-07-23T15:08:11;25.10;58.20
58993;DHT22;44782;0.000;0.000;2022-07-23T15:10:26;25.10;58.00
58993;DHT22;44782;0.000;0.000;2022-07-23T15:12:42;25.10;58.10
58993;DHT22;44782;0.000;0.000;2022-07-23T15:14:57;25.10;58.10
58993;DHT22;44782;0.000;0.000;2022-07-23T15:17:13;25.10;58.00